Time;durP1;ratioP1;P1;durP2;ratioP2;P2;SDS_P1;SDS_P2;PMS_P1;PMS_P2;Temp;Humidity;BMP_temperature;BMP_pressure;BME280_temperature;BME280_humidity;BME280_pressure;Samples;Min_cycle;Max_cycle;Signal;HPM_P1;HPM_P2
2021/09/27 00:02:04;;;;;;;14.48;7.95;;;;;;;;;;4960892;28;20165;-76
2021/09/27 00:04:30;;;;;;;19.48;8.48;;;;;;;;;;4961632;28;20026;-76
2021/09/27 00:06:57;;;;;;;19.05;8.80;;;;;;;;;;4964241;28;20022;-76
2021/09/27 00:09:26;;;;;;;18.98;8.15;;;;;;;;;;4956324;28;20034;-77
2021/09/27 00:11:52;;;;;;;14.05;7.15;;;;;;;;;;4950208;28;20793;-77
2021/09/27 00:14:18;;;;;;;18.92;7.45;;;;;;;;;;4950467;28;20031;-76
2021/09/27 00:16:44;;;;;;;15.07;7.07;;;;;;;;;;4953512;28;20038;-76
2021/09/27 00:19:10;;;;;;;16.35;7.78;;;;;;;;;;4958916;28;20567;-76
2021/09/27 00:21:36;;;;;;;14.50;7.65;;;;;;;;;;4958009;28;20054;-76
2021/09/27 00:24:03;;;;;;;14.73;7.38;;;;;;;;;;4943071;28;20035;-77
2021/09/27 00:26:30;;;;;;;18.15;8.13;;;;;;;;;;4946798;28;20031;-76
2021/09/27 00:28:56;;;;;;;16.17;7.95;;;;;;;;;;4957030;28;20039;-76
2021/09/27 00:31:22;;;;;;;17.25;7.85;;;;;;;;;;4937758;28;20182;-75
2021/09/27 00:33:49;;;;;;;14.95;6.75;;;;;;;;;;4944118;28;20037;-78
2021/09/27 00:36:17;;;;;;;16.73;7.57;;;;;;;;;;4955533;28;20425;-77
2021/09/27 00:38:44;;;;;;;18.83;7.25;;;;;;;;;;4943013;28;20050;-80
2021/09/27 00:41:12;;;;;;;14.70;7.97;;;;;;;;;;4937921;28;20033;-79
2021/09/27 00:43:39;;;;;;;16.08;8.05;;;;;;;;;;4945356;28;20098;-78
2021/09/27 00:46:07;;;;;;;17.45;8.00;;;;;;;;;;4942260;28;20027;-79
2021/09/27 00:48:34;;;;;;;15.13;7.80;;;;;;;;;;4957107;28;20866;-81
2021/09/27 00:51:02;;;;;;;16.80;8.13;;;;;;;;;;4945291;28;20649;-79
2021/09/27 00:53:41;;;;;;;18.10;7.68;;;;;;;;;;4938421;28;20030;-79
2021/09/27 00:56:08;;;;;;;14.60;7.78;;;;;;;;;;4951184;28;20038;-79
2021/09/27 00:58:35;;;;;;;16.77;7.38;;;;;;;;;;4973665;28;20627;-78
2021/09/27 01:01:02;;;;;;;12.85;7.10;;;;;;;;;;4972149;28;20035;-77
2021/09/27 01:03:28;;;;;;;19.05;8.20;;;;;;;;;;4959050;28;20038;-77
2021/09/27 01:06:15;;;;;;;17.83;7.85;;;;;;;;;;4962797;28;20038;-78
2021/09/27 01:09:00;;;;;;;21.08;9.05;;;;;;;;;;4940771;28;20042;-77
2021/09/27 01:11:35;;;;;;;19.23;8.15;;;;;;;;;;4974948;28;20573;-78
2021/09/27 01:14:20;;;;;;;16.38;9.10;;;;;;;;;;4960144;28;20351;-77
2021/09/27 01:16:56;;;;;;;18.13;8.25;;;;;;;;;;4964861;28;20069;-79
2021/09/27 01:19:22;;;;;;;22.10;9.20;;;;;;;;;;4974801;28;20062;-78
2021/09/27 01:22:04;;;;;;;18.77;8.88;;;;;;;;;;4960542;28;20087;-79
2021/09/27 01:24:31;;;;;;;18.73;8.05;;;;;;;;;;4962849;28;20419;-78
2021/09/27 01:27:14;;;;;;;22.00;9.27;;;;;;;;;;4977895;28;20034;-79
2021/09/27 01:29:55;;;;;;;16.20;7.85;;;;;;;;;;4960783;28;20038;-78
2021/09/27 01:32:24;;;;;;;18.85;7.95;;;;;;;;;;4950612;28;20089;-78
2021/09/27 01:35:10;;;;;;;16.90;7.68;;;;;;;;;;4960326;28;20100;-78
2021/09/27 01:37:56;;;;;;;14.70;7.50;;;;;;;;;;4957617;28;20824;-79
2021/09/27 01:40:38;;;;;;;13.73;7.10;;;;;;;;;;4955393;28;20284;-78
2021/09/27 01:43:10;;;;;;;17.98;8.20;;;;;;;;;;4961312;28;20086;-78
2021/09/27 01:45:45;;;;;;;19.33;9.07;;;;;;;;;;4959006;28;20064;-78
2021/09/27 01:48:17;;;;;;;17.73;7.93;;;;;;;;;;4957362;28;20056;-78
2021/09/27 01:50:57;;;;;;;17.27;7.82;;;;;;;;;;4973983;28;21352;-79
2021/09/27 01:53:25;;;;;;;16.88;7.53;;;;;;;;;;4967163;28;20599;-78
2021/09/27 01:56:18;;;;;;;20.35;9.82;;;;;;;;;;4962854;28;20038;-77
2021/09/27 01:58:50;;;;;;;18.23;9.00;;;;;;;;;;4959232;28;20130;-78
2021/09/27 02:01:30;;;;;;;19.25;8.05;;;;;;;;;;4972980;28;20142;-78
2021/09/27 02:04:00;;;;;;;18.38;9.27;;;;;;;;;;4963115;28;20042;-78
2021/09/27 02:06:31;;;;;;;16.42;8.15;;;;;;;;;;4963745;28;20041;-78
2021/09/27 02:09:15;;;;;;;14.25;7.70;;;;;;;;;;4964462;28;20043;-78
2021/09/27 02:11:44;;;;;;;18.70;8.60;;;;;;;;;;4963623;28;20147;-78
2021/09/27 02:14:13;;;;;;;16.25;7.70;;;;;;;;;;4963857;28;20035;-78
2021/09/27 02:16:58;;;;;;;17.27;7.88;;;;;;;;;;5003186;28;20035;-77
2021/09/27 02:19:33;;;;;;;19.48;6.70;;;;;;;;;;4996844;28;20030;-78
2021/09/27 02:22:04;;;;;;;14.30;7.50;;;;;;;;;;4965448;28;20299;-77
2021/09/27 02:24:35;;;;;;;20.17;7.25;;;;;;;;;;4962615;28;20026;-78
2021/09/27 02:27:02;;;;;;;18.20;8.65;;;;;;;;;;4957465;28;20043;-78
2021/09/27 02:29:28;;;;;;;18.58;7.63;;;;;;;;;;4961615;28;20046;-78
2021/09/27 02:32:00;;;;;;;19.50;8.27;;;;;;;;;;4960550;28;20488;-78
2021/09/27 02:34:29;;;;;;;16.42;7.75;;;;;;;;;;4962409;28;20148;-77
2021/09/27 02:37:04;;;;;;;15.52;6.78;;;;;;;;;;4955284;28;20085;-80
2021/09/27 02:39:37;;;;;;;13.77;6.75;;;;;;;;;;4963881;28;20050;-78
2021/09/27 02:42:04;;;;;;;17.70;7.53;;;;;;;;;;4976235;28;20148;-78
2021/09/27 02:44:30;;;;;;;15.63;7.50;;;;;;;;;;4960505;28;20057;-77
2021/09/27 02:46:57;;;;;;;15.50;7.85;;;;;;;;;;4963994;28;20108;-77
2021/09/27 02:49:31;;;;;;;20.08;7.75;;;;;;;;;;4959978;28;20042;-77
2021/09/27 02:51:59;;;;;;;13.75;7.07;;;;;;;;;;4962111;28;20633;-77
2021/09/27 02:54:48;;;;;;;15.60;7.32;;;;;;;;;;4973022;28;21038;-77
2021/09/27 02:57:32;;;;;;;16.60;7.20;;;;;;;;;;4950707;28;20050;-78
2021/09/27 03:00:04;;;;;;;12.55;6.75;;;;;;;;;;4960869;28;20065;-77
2021/09/27 03:02:40;;;;;;;14.13;7.28;;;;;;;;;;4961757;28;20055;-78
2021/09/27 03:05:06;;;;;;;15.55;7.30;;;;;;;;;;4962115;28;20042;-78
2021/09/27 03:07:32;;;;;;;15.80;7.60;;;;;;;;;;4975541;28;20038;-78
2021/09/27 03:10:09;;;;;;;15.63;7.97;;;;;;;;;;4975081;28;20053;-78
2021/09/27 03:12:35;;;;;;;;;;;;;;;;;;4959868;28;20126;-78
2021/09/27 03:15:23;;;;;;;14.75;6.90;;;;;;;;;;4961088;28;19918;-78
2021/09/27 03:17:49;;;;;;;14.10;6.60;;;;;;;;;;4957276;28;20034;-78
2021/09/27 03:20:21;;;;;;;14.27;7.57;;;;;;;;;;4961895;28;20500;-78
2021/09/27 03:22:50;;;;;;;15.07;6.93;;;;;;;;;;4962215;28;20070;-77
2021/09/27 03:25:26;;;;;;;14.70;6.13;;;;;;;;;;4959146;28;20031;-78
2021/09/27 03:28:11;;;;;;;15.50;7.27;;;;;;;;;;4962785;28;20679;-79
2021/09/27 03:30:55;;;;;;;13.57;6.43;;;;;;;;;;4965221;28;20041;-78
2021/09/27 03:33:25;;;;;;;13.18;6.63;;;;;;;;;;4958410;28;20495;-78
2021/09/27 03:36:07;;;;;;;13.20;6.75;;;;;;;;;;4965665;28;20531;-79
2021/09/27 03:38:52;;;;;;;11.93;5.80;;;;;;;;;;4957196;28;20034;-79
2021/09/27 03:41:37;;;;;;;13.90;6.38;;;;;;;;;;4957757;28;20547;-76
2021/09/27 03:44:09;;;;;;;13.50;5.75;;;;;;;;;;4967087;28;20571;-79
2021/09/27 03:46:50;;;;;;;15.48;6.47;;;;;;;;;;4959375;28;20081;-78
2021/09/27 03:49:26;;;;;;;14.55;6.38;;;;;;;;;;4955646;28;20050;-79
2021/09/27 03:52:00;;;;;;;12.60;6.65;;;;;;;;;;4977702;28;20532;-78
2021/09/27 03:54:29;;;;;;;12.57;5.72;;;;;;;;;;4974005;28;20156;-78
2021/09/27 03:57:02;;;;;;;14.50;6.75;;;;;;;;;;4959634;28;20038;-79
2021/09/27 03:59:35;;;;;;;14.52;6.60;;;;;;;;;;4959617;28;20038;-78
2021/09/27 04:02:06;;;;;;;13.68;6.65;;;;;;;;;;4952875;28;20134;-77
2021/09/27 04:04:39;;;;;;;12.52;6.05;;;;;;;;;;4959701;28;20030;-80
2021/09/27 04:07:08;;;;;;;12.43;5.95;;;;;;;;;;4958987;28;20117;-78
2021/09/27 04:09:43;;;;;;;13.52;6.78;;;;;;;;;;4958762;28;20035;-78
2021/09/27 04:12:09;;;;;;;13.30;6.63;;;;;;;;;;4974082;28;20116;-77
2021/09/27 04:14:58;;;;;;;13.35;6.57;;;;;;;;;;4976274;28;20046;-78
2021/09/27 04:17:32;;;;;;;13.75;6.95;;;;;;;;;;4973747;28;22643;-78
2021/09/27 04:20:13;;;;;;;15.45;7.30;;;;;;;;;;4977201;28;20034;-78
2021/09/27 04:22:41;;;;;;;13.70;7.28;;;;;;;;;;4963487;28;20034;-77
2021/09/27 04:25:16;;;;;;;12.57;7.35;;;;;;;;;;4972166;28;21215;-78
2021/09/27 04:27:43;;;;;;;15.30;6.00;;;;;;;;;;4971284;28;20435;-77
2021/09/27 04:30:09;;;;;;;12.80;6.95;;;;;;;;;;4963688;28;20040;-78
2021/09/27 04:32:44;;;;;;;16.88;7.80;;;;;;;;;;4977943;28;20171;-78
2021/09/27 04:35:21;;;;;;;13.63;7.18;;;;;;;;;;4954388;28;20063;-78
2021/09/27 04:37:48;;;;;;;14.45;7.47;;;;;;;;;;4961558;28;20057;-79
2021/09/27 04:40:16;;;;;;;15.85;7.13;;;;;;;;;;4954543;28;20041;-80
2021/09/27 04:42:49;;;;;;;13.63;6.30;;;;;;;;;;4961742;28;20084;-79
2021/09/27 04:45:15;;;;;;;11.95;6.63;;;;;;;;;;4971897;28;20141;-79
2021/09/27 04:47:41;;;;;;;;;;;;;;;;;;4974537;28;20026;-79
2021/09/27 04:50:07;;;;;;;16.15;7.45;;;;;;;;;;4961204;28;19922;-77
2021/09/27 04:52:36;;;;;;;12.38;6.25;;;;;;;;;;4958632;28;20045;-78
2021/09/27 04:55:03;;;;;;;13.38;7.10;;;;;;;;;;4972527;28;20049;-79
2021/09/27 04:57:34;;;;;;;16.00;7.25;;;;;;;;;;4960105;28;20038;-78
2021/09/27 05:00:09;;;;;;;14.95;6.68;;;;;;;;;;4959619;28;20368;-78
2021/09/27 05:02:42;;;;;;;15.82;7.00;;;;;;;;;;4961278;28;20101;-79
2021/09/27 05:05:08;;;;;;;13.25;6.80;;;;;;;;;;4958251;28;20041;-80
2021/09/27 05:07:53;;;;;;;14.38;6.22;;;;;;;;;;4964934;28;20121;-79
2021/09/27 05:10:38;;;;;;;12.80;4.95;;;;;;;;;;4972899;28;20692;-79
2021/09/27 05:13:22;;;;;;;10.23;5.20;;;;;;;;;;4964235;28;20042;-77
2021/09/27 05:16:06;;;;;;;10.98;4.03;;;;;;;;;;4956241;28;20171;-78
2021/09/27 05:18:38;;;;;;;11.10;4.05;;;;;;;;;;4958055;28;20026;-78
2021/09/27 05:21:11;;;;;;;13.88;5.03;;;;;;;;;;4961086;28;20030;-79
2021/09/27 05:23:43;;;;;;;10.43;4.60;;;;;;;;;;4963173;28;20117;-77
2021/09/27 05:26:28;;;;;;;10.32;5.35;;;;;;;;;;4956615;28;20093;-80
2021/09/27 05:28:57;;;;;;;11.68;4.97;;;;;;;;;;4965439;28;20070;-79
2021/09/27 05:31:29;;;;;;;12.68;4.80;;;;;;;;;;4954866;28;20068;-78
2021/09/27 05:33:58;;;;;;;11.25;4.18;;;;;;;;;;4963336;28;20073;-78
2021/09/27 05:36:47;;;;;;;12.15;5.28;;;;;;;;;;4962597;28;20030;-78
2021/09/27 05:39:32;;;;;;;17.17;6.68;;;;;;;;;;4959371;28;20392;-78
2021/09/27 05:41:58;;;;;;;16.52;7.57;;;;;;;;;;4962064;28;20034;-78
2021/09/27 05:44:24;;;;;;;;;;;;;;;;;;4961316;28;24117;-79
2021/09/27 05:47:03;;;;;;;14.27;6.15;;;;;;;;;;4959166;28;19922;-79
2021/09/27 05:49:49;;;;;;;14.25;7.07;;;;;;;;;;4960306;28;20031;-78
2021/09/27 05:52:44;;;;;;;14.60;6.40;;;;;;;;;;4964756;28;20464;-78
2021/09/27 05:55:10;;;;;;;15.10;6.95;;;;;;;;;;4962624;28;20097;-78
2021/09/27 05:57:45;;;;;;;15.98;6.20;;;;;;;;;;4964559;28;20022;-79
2021/09/27 06:00:20;;;;;;;14.65;6.53;;;;;;;;;;4961280;28;20848;-78
2021/09/27 06:02:56;;;;;;;18.60;7.90;;;;;;;;;;4964525;28;20051;-77
2021/09/27 06:05:28;;;;;;;14.93;6.63;;;;;;;;;;4961632;28;20039;-78
2021/09/27 06:08:00;;;;;;;15.68;6.85;;;;;;;;;;4964957;28;20137;-78
2021/09/27 06:10:33;;;;;;;11.75;5.57;;;;;;;;;;4957285;28;20050;-78
2021/09/27 06:13:05;;;;;;;15.57;5.10;;;;;;;;;;4964512;28;20057;-77
2021/09/27 06:15:52;;;;;;;9.82;4.40;;;;;;;;;;4964239;28;20030;-78
2021/09/27 06:18:37;;;;;;;10.13;3.90;;;;;;;;;;4974532;28;20109;-78
2021/09/27 06:21:14;;;;;;;10.32;4.07;;;;;;;;;;4960054;28;20057;-78
2021/09/27 06:23:59;;;;;;;10.05;3.95;;;;;;;;;;4955689;28;20129;-79
2021/09/27 06:26:27;;;;;;;9.02;3.72;;;;;;;;;;4955843;28;21723;-79
2021/09/27 06:28:53;;;;;;;11.00;4.07;;;;;;;;;;4980530;28;20507;-78
2021/09/27 06:31:19;;;;;;;;;;;;;;;;;;4960031;28;20148;-80
2021/09/27 06:34:00;;;;;;;9.32;3.45;;;;;;;;;;4962281;28;19924;-81
2021/09/27 06:36:36;;;;;;;10.30;3.83;;;;;;;;;;4961363;28;20093;-79
2021/09/27 06:39:05;;;;;;;13.30;4.50;;;;;;;;;;4962825;28;20046;-80
2021/09/27 06:41:33;;;;;;;9.52;3.47;;;;;;;;;;4959626;28;20038;-79
2021/09/27 06:43:59;;;;;;;12.52;4.95;;;;;;;;;;4958362;28;20116;-79
2021/09/27 06:46:25;;;;;;;13.80;5.15;;;;;;;;;;4959233;28;21581;-79
2021/09/27 06:48:51;;;;;;;11.07;4.28;;;;;;;;;;4960507;28;20026;-79
2021/09/27 06:51:18;;;;;;;13.73;5.63;;;;;;;;;;4973251;28;20026;-79
2021/09/27 06:53:44;;;;;;;14.23;6.43;;;;;;;;;;4963112;28;20338;-80
2021/09/27 06:56:11;;;;;;;13.23;5.90;;;;;;;;;;4955698;28;20038;-78
2021/09/27 06:58:37;;;;;;;22.88;8.77;;;;;;;;;;4958295;28;20031;-79
2021/09/27 07:01:04;;;;;;;21.10;7.80;;;;;;;;;;4960217;28;20141;-78
2021/09/27 07:03:30;;;;;;;18.25;7.85;;;;;;;;;;4956332;28;20046;-78
2021/09/27 07:05:56;;;;;;;18.25;8.20;;;;;;;;;;4960632;28;20496;-79
2021/09/27 07:08:23;;;;;;;17.75;7.07;;;;;;;;;;4953671;28;20030;-79
2021/09/27 07:10:50;;;;;;;16.45;8.10;;;;;;;;;;4975600;28;20515;-79
2021/09/27 07:13:16;;;;;;;19.40;7.82;;;;;;;;;;4952901;28;20900;-79
2021/09/27 07:15:43;;;;;;;20.25;6.80;;;;;;;;;;4962257;28;20027;-79
2021/09/27 07:18:09;;;;;;;23.15;9.20;;;;;;;;;;4973856;28;20034;-79
2021/09/27 07:20:36;;;;;;;20.05;7.43;;;;;;;;;;4957120;28;20042;-79
2021/09/27 07:23:03;;;;;;;16.63;8.00;;;;;;;;;;4960366;28;20166;-78
2021/09/27 07:25:30;;;;;;;16.98;8.02;;;;;;;;;;4949646;28;20171;-78
2021/09/27 07:27:57;;;;;;;19.80;8.35;;;;;;;;;;4955988;28;20027;-78
2021/09/27 07:30:24;;;;;;;22.83;9.50;;;;;;;;;;4960046;28;20045;-78
2021/09/27 07:32:51;;;;;;;22.77;9.75;;;;;;;;;;4961239;28;20554;-77
2021/09/27 07:35:19;;;;;;;22.90;9.52;;;;;;;;;;4956106;28;20030;-80
2021/09/27 07:37:45;;;;;;;18.17;9.45;;;;;;;;;;4960360;28;20026;-80
2021/09/27 07:40:14;;;;;;;22.92;11.65;;;;;;;;;;4971235;28;20053;-78
2021/09/27 07:42:41;;;;;;;16.42;8.85;;;;;;;;;;4963144;28;20027;-79
2021/09/27 07:45:07;;;;;;;21.83;9.52;;;;;;;;;;4959553;28;20120;-78
2021/09/27 07:47:34;;;;;;;22.10;11.80;;;;;;;;;;4940584;28;20382;-78
2021/09/27 07:50:00;;;;;;;22.23;9.20;;;;;;;;;;4939768;28;20121;-78
2021/09/27 07:52:26;;;;;;;18.58;8.88;;;;;;;;;;4946977;28;20042;-78
2021/09/27 07:54:52;;;;;;;16.17;7.40;;;;;;;;;;4952677;28;20165;-78
2021/09/27 07:57:19;;;;;;;19.48;8.68;;;;;;;;;;4969909;28;20035;-78
2021/09/27 07:59:46;;;;;;;19.60;7.85;;;;;;;;;;4944341;28;20069;-78
2021/09/27 08:02:18;;;;;;;17.58;6.38;;;;;;;;;;4948283;28;20050;-79
2021/09/27 08:04:44;;;;;;;16.55;7.05;;;;;;;;;;4948071;28;20052;-78
2021/09/27 08:07:10;;;;;;;19.80;6.82;;;;;;;;;;4956919;28;20061;-77
2021/09/27 08:09:36;;;;;;;18.95;6.72;;;;;;;;;;4960672;28;20818;-78
2021/09/27 08:12:03;;;;;;;18.30;6.20;;;;;;;;;;4970935;28;20137;-78
2021/09/27 08:14:29;;;;;;;14.73;5.72;;;;;;;;;;4972163;28;20034;-79
2021/09/27 08:16:55;;;;;;;20.17;5.65;;;;;;;;;;4951751;28;20041;-79
2021/09/27 08:19:25;;;;;;;16.17;6.18;;;;;;;;;;4970936;28;20507;-79
2021/09/27 08:21:54;;;;;;;12.68;5.03;;;;;;;;;;4959837;28;20052;-78
2021/09/27 08:24:20;;;;;;;19.05;4.75;;;;;;;;;;4957188;28;20483;-79
2021/09/27 08:26:47;;;;;;;13.57;4.93;;;;;;;;;;4957362;28;20453;-80
2021/09/27 08:29:13;;;;;;;19.00;4.88;;;;;;;;;;4953347;28;20133;-80
2021/09/27 08:31:43;;;;;;;14.27;4.70;;;;;;;;;;4956742;28;20431;-80
2021/09/27 08:34:09;;;;;;;13.30;4.30;;;;;;;;;;4950518;28;20107;-79
2021/09/27 08:36:38;;;;;;;15.45;5.53;;;;;;;;;;4946030;28;20022;-80
2021/09/27 08:39:07;;;;;;;12.73;4.75;;;;;;;;;;4960309;28;20065;-78
2021/09/27 08:41:39;;;;;;;10.43;3.85;;;;;;;;;;4971673;28;20054;-79
2021/09/27 08:44:15;;;;;;;12.60;5.28;;;;;;;;;;4958547;28;20042;-79
2021/09/27 08:46:51;;;;;;;14.00;3.67;;;;;;;;;;4952303;28;20029;-80
2021/09/27 08:49:30;;;;;;;9.55;3.38;;;;;;;;;;4970787;28;20039;-80
2021/09/27 08:51:57;;;;;;;9.80;2.95;;;;;;;;;;4961418;28;20029;-79
2021/09/27 08:54:24;;;;;;;11.13;3.15;;;;;;;;;;4958815;28;20037;-80
2021/09/27 08:57:09;;;;;;;7.65;2.33;;;;;;;;;;4962333;28;20030;-79
2021/09/27 08:59:35;;;;;;;7.82;2.67;;;;;;;;;;4961023;28;20053;-80
2021/09/27 09:02:10;;;;;;;9.80;2.45;;;;;;;;;;4958906;28;20031;-80
2021/09/27 09:04:43;;;;;;;8.93;2.78;;;;;;;;;;4959878;28;20033;-79
2021/09/27 09:07:11;;;;;;;7.22;2.00;;;;;;;;;;4954112;28;20046;-79
2021/09/27 09:09:41;;;;;;;5.70;2.15;;;;;;;;;;4952640;28;20042;-79
2021/09/27 09:12:13;;;;;;;8.00;2.35;;;;;;;;;;4953682;28;20042;-79
2021/09/27 09:14:58;;;;;;;7.20;1.80;;;;;;;;;;4951996;28;20546;-79
2021/09/27 09:17:39;;;;;;;5.78;2.03;;;;;;;;;;4968071;28;20120;-78
2021/09/27 09:20:13;;;;;;;7.10;2.00;;;;;;;;;;4956802;28;20165;-78
2021/09/27 09:22:41;;;;;;;9.57;2.33;;;;;;;;;;4952302;28;20042;-79
2021/09/27 09:25:11;;;;;;;4.57;1.70;;;;;;;;;;4951526;28;20073;-79
2021/09/27 09:27:37;;;;;;;6.25;1.77;;;;;;;;;;4961148;28;20027;-79
2021/09/27 09:30:06;;;;;;;7.07;2.30;;;;;;;;;;4959283;28;20030;-78
2021/09/27 09:32:34;;;;;;;8.27;2.00;;;;;;;;;;4968560;28;20050;-78
2021/09/27 09:35:18;;;;;;;11.70;2.45;;;;;;;;;;4959198;28;20165;-78
2021/09/27 09:37:51;;;;;;;9.20;2.05;;;;;;;;;;4957131;28;20045;-79
2021/09/27 09:40:20;;;;;;;6.55;1.80;;;;;;;;;;4968039;28;20034;-80
2021/09/27 09:43:01;;;;;;;7.50;1.70;;;;;;;;;;4958329;28;20026;-77
2021/09/27 09:45:30;;;;;;;4.40;1.42;;;;;;;;;;4954505;28;20084;-78
2021/09/27 09:48:13;;;;;;;5.90;1.60;;;;;;;;;;4955141;28;20043;-79
2021/09/27 09:50:39;;;;;;;7.32;1.88;;;;;;;;;;4954491;28;20038;-79
2021/09/27 09:53:15;;;;;;;6.03;1.70;;;;;;;;;;4959638;28;20038;-79
2021/09/27 09:55:43;;;;;;;7.28;1.60;;;;;;;;;;4953676;28;20035;-79
2021/09/27 09:58:14;;;;;;;9.07;1.88;;;;;;;;;;4967359;28;20452;-79
2021/09/27 10:00:55;;;;;;;8.80;1.80;;;;;;;;;;4956317;28;20042;-79
2021/09/27 10:03:29;;;;;;;4.80;1.40;;;;;;;;;;4952520;28;20132;-79
2021/09/27 10:06:00;;;;;;;6.95;1.42;;;;;;;;;;4969604;28;20038;-80
2021/09/27 10:08:30;;;;;;;6.22;1.70;;;;;;;;;;4953702;28;20092;-81
2021/09/27 10:11:11;;;;;;;6.60;1.70;;;;;;;;;;4958043;28;20062;-80
2021/09/27 10:13:55;;;;;;;8.57;1.70;;;;;;;;;;4947646;28;20097;-78
2021/09/27 10:16:40;;;;;;;7.72;1.65;;;;;;;;;;4957267;28;20043;-80
2021/09/27 10:19:33;;;;;;;6.43;1.70;;;;;;;;;;4954723;28;20599;-79
2021/09/27 10:22:06;;;;;;;6.47;1.77;;;;;;;;;;4954928;28;20053;-79
2021/09/27 10:24:35;;;;;;;6.43;1.95;;;;;;;;;;4958659;28;20033;-80
2021/09/27 10:27:02;;;;;;;7.57;1.80;;;;;;;;;;4958806;28;21439;-80
2021/09/27 10:29:30;;;;;;;5.65;1.40;;;;;;;;;;4958459;28;20133;-80
2021/09/27 10:31:58;;;;;;;4.28;1.40;;;;;;;;;;4974126;28;20085;-81
2021/09/27 10:34:27;;;;;;;3.63;1.10;;;;;;;;;;4952874;28;20089;-78
2021/09/27 10:36:58;;;;;;;6.05;1.30;;;;;;;;;;4962564;28;20026;-79
2021/09/27 10:39:25;;;;;;;4.15;1.20;;;;;;;;;;4957184;28;20038;-78
2021/09/27 10:41:54;;;;;;;4.68;1.20;;;;;;;;;;4959952;28;20137;-79
2021/09/27 10:44:24;;;;;;;5.18;1.38;;;;;;;;;;4958036;28;20574;-79
2021/09/27 10:46:52;;;;;;;5.03;1.40;;;;;;;;;;4963440;28;20149;-77
2021/09/27 10:49:27;;;;;;;5.65;1.63;;;;;;;;;;4971056;28;20105;-81
2021/09/27 10:51:56;;;;;;;4.82;1.25;;;;;;;;;;4985406;28;20038;-78
2021/09/27 10:54:33;;;;;;;5.85;1.38;;;;;;;;;;4956324;28;20027;-78
2021/09/27 10:57:01;;;;;;;4.10;1.50;;;;;;;;;;4960921;28;20181;-80
2021/09/27 10:59:36;;;;;;;6.10;1.77;;;;;;;;;;4960510;28;20049;-78
2021/09/27 11:02:09;;;;;;;7.50;3.10;;;;;;;;;;4958262;28;20035;-79
2021/09/27 11:04:40;;;;;;;7.90;2.67;;;;;;;;;;4964639;28;20042;-78
2021/09/27 11:07:16;;;;;;;5.75;1.30;;;;;;;;;;4975849;28;20141;-79
2021/09/27 11:09:44;;;;;;;4.80;1.33;;;;;;;;;;4961960;28;20034;-79
2021/09/27 11:12:17;;;;;;;6.35;1.40;;;;;;;;;;4963606;28;20030;-79
2021/09/27 11:14:46;;;;;;;4.38;1.33;;;;;;;;;;4978393;28;20037;-78
2021/09/27 11:17:17;;;;;;;4.97;1.58;;;;;;;;;;4971796;28;20038;-78
2021/09/27 11:19:44;;;;;;;6.68;1.50;;;;;;;;;;4979234;28;20134;-79
2021/09/27 11:22:17;;;;;;;5.18;1.60;;;;;;;;;;4957611;28;20275;-78
2021/09/27 11:24:43;;;;;;;6.35;1.50;;;;;;;;;;4958469;28;20027;-78
2021/09/27 11:27:12;;;;;;;8.35;1.65;;;;;;;;;;4952780;28;21008;-78
2021/09/27 11:29:39;;;;;;;7.03;1.60;;;;;;;;;;4972466;28;20034;-79
2021/09/27 11:32:11;;;;;;;10.02;1.70;;;;;;;;;;4950051;28;20125;-79
2021/09/27 11:34:37;;;;;;;8.45;2.30;;;;;;;;;;4958320;28;20038;-78
2021/09/27 11:37:12;;;;;;;7.20;2.00;;;;;;;;;;4962971;28;20034;-78
2021/09/27 11:39:46;;;;;;;10.02;2.78;;;;;;;;;;4974440;28;20037;-78
2021/09/27 11:42:22;;;;;;;7.47;1.70;;;;;;;;;;4971003;28;20756;-78
2021/09/27 11:45:13;;;;;;;5.57;1.55;;;;;;;;;;4958605;28;20901;-78
2021/09/27 11:47:43;;;;;;;5.78;1.33;;;;;;;;;;4959070;28;20034;-79
2021/09/27 11:50:17;;;;;;;7.10;1.65;;;;;;;;;;4952137;28;20049;-78
2021/09/27 11:52:48;;;;;;;8.37;1.50;;;;;;;;;;4958619;28;20031;-78
2021/09/27 11:55:34;;;;;;;4.43;1.52;;;;;;;;;;4962966;28;20042;-79
2021/09/27 11:58:17;;;;;;;4.80;1.40;;;;;;;;;;4955611;28;20549;-77
2021/09/27 12:01:04;;;;;;;5.93;1.48;;;;;;;;;;4962387;28;20054;-78
2021/09/27 12:03:30;;;;;;;7.72;1.70;;;;;;;;;;4965888;28;20046;-78
2021/09/27 12:06:02;;;;;;;6.43;1.60;;;;;;;;;;4955091;28;20043;-78
2021/09/27 12:08:29;;;;;;;5.00;1.48;;;;;;;;;;4950023;28;20034;-79
2021/09/27 12:11:05;;;;;;;4.82;1.48;;;;;;;;;;4971711;28;20073;-78
2021/09/27 12:13:36;;;;;;;7.32;1.95;;;;;;;;;;4954037;28;20038;-79
2021/09/27 12:16:04;;;;;;;4.65;1.60;;;;;;;;;;4954943;28;20125;-78
2021/09/27 12:18:59;;;;;;;5.35;1.67;;;;;;;;;;4956736;28;20054;-77
2021/09/27 12:21:30;;;;;;;6.18;1.60;;;;;;;;;;4951641;28;22487;-78
2021/09/27 12:24:06;;;;;;;6.75;1.88;;;;;;;;;;4950430;28;20054;-79
2021/09/27 12:26:38;;;;;;;7.18;1.75;;;;;;;;;;4957539;28;20149;-78
2021/09/27 12:29:14;;;;;;;5.22;1.70;;;;;;;;;;4952437;28;20034;-78
2021/09/27 12:32:00;;;;;;;7.60;1.73;;;;;;;;;;4956147;28;20488;-78
2021/09/27 12:34:31;;;;;;;6.10;1.88;;;;;;;;;;4952729;28;20043;-78
2021/09/27 12:36:57;;;;;;;6.93;2.10;;;;;;;;;;4953337;28;20289;-78
2021/09/27 12:39:28;;;;;;;5.80;1.90;;;;;;;;;;4969278;28;20092;-78
2021/09/27 12:41:55;;;;;;;8.00;1.95;;;;;;;;;;4956240;28;20041;-79
2021/09/27 12:44:31;;;;;;;5.20;1.80;;;;;;;;;;4954801;28;20058;-78
2021/09/27 12:47:05;;;;;;;6.28;2.20;;;;;;;;;;4951364;28;20145;-78
2021/09/27 12:49:36;;;;;;;7.70;2.17;;;;;;;;;;4954029;28;20046;-81
2021/09/27 12:52:04;;;;;;;7.20;1.70;;;;;;;;;;4968868;28;20039;-82
2021/09/27 12:54:33;;;;;;;6.00;2.00;;;;;;;;;;4955521;28;20058;-81
2021/09/27 12:57:01;;;;;;;6.43;2.05;;;;;;;;;;4957105;28;20039;-81
2021/09/27 12:59:29;;;;;;;7.45;2.20;;;;;;;;;;4955431;28;20042;-81
2021/09/27 13:01:58;;;;;;;6.47;2.05;;;;;;;;;;4956533;28;20030;-80
2021/09/27 13:04:34;;;;;;;5.60;2.20;;;;;;;;;;4955583;28;20049;-80
2021/09/27 13:07:08;;;;;;;8.25;2.40;;;;;;;;;;4956509;28;20030;-82
2021/09/27 13:09:37;;;;;;;8.93;2.38;;;;;;;;;;4974005;28;20035;-81
2021/09/27 13:12:10;;;;;;;9.60;2.53;;;;;;;;;;4971107;28;20054;-80
2021/09/27 13:14:39;;;;;;;10.52;2.80;;;;;;;;;;4957123;28;20034;-80
2021/09/27 13:17:15;;;;;;;9.00;2.10;;;;;;;;;;4971449;28;20038;-80
2021/09/27 13:19:44;;;;;;;9.88;2.15;;;;;;;;;;4975854;28;20068;-81
2021/09/27 13:22:15;;;;;;;7.70;2.45;;;;;;;;;;4955832;28;20333;-81
2021/09/27 13:24:44;;;;;;;7.55;2.30;;;;;;;;;;4960011;28;20148;-77
2021/09/27 13:27:14;;;;;;;8.98;2.13;;;;;;;;;;4956830;28;20074;-79
2021/09/27 13:29:40;;;;;;;8.65;2.60;;;;;;;;;;4958833;28;20043;-79
2021/09/27 13:32:13;;;;;;;7.53;2.50;;;;;;;;;;4961783;28;20034;-81
2021/09/27 13:34:49;;;;;;;9.02;2.20;;;;;;;;;;4958642;28;20065;-81
2021/09/27 13:37:22;;;;;;;9.77;2.58;;;;;;;;;;4956668;28;20034;-80
2021/09/27 13:39:49;;;;;;;8.77;2.25;;;;;;;;;;4960383;28;20035;-81
2021/09/27 13:42:35;;;;;;;8.93;2.60;;;;;;;;;;4951669;28;20078;-81
2021/09/27 13:45:01;;;;;;;7.15;2.33;;;;;;;;;;4970784;28;20072;-79
2021/09/27 13:47:29;;;;;;;9.15;2.40;;;;;;;;;;4955000;28;20443;-80
2021/09/27 13:49:55;;;;;;;9.55;2.40;;;;;;;;;;4969973;28;20141;-79
2021/09/27 13:52:26;;;;;;;8.32;2.28;;;;;;;;;;4950219;28;20062;-81
2021/09/27 13:54:52;;;;;;;8.65;2.50;;;;;;;;;;4963930;28;20033;-80
2021/09/27 13:57:18;;;;;;;9.20;2.47;;;;;;;;;;4976704;28;20125;-80
2021/09/27 13:59:45;;;;;;;9.27;2.47;;;;;;;;;;4959766;28;20042;-81
2021/09/27 14:02:12;;;;;;;6.85;2.10;;;;;;;;;;4957943;28;20141;-80
2021/09/27 14:04:38;;;;;;;10.43;2.72;;;;;;;;;;4960863;28;20069;-81
2021/09/27 14:07:04;;;;;;;8.27;2.28;;;;;;;;;;4961820;28;20117;-80
2021/09/27 14:09:31;;;;;;;8.15;2.60;;;;;;;;;;4960924;28;20042;-80
2021/09/27 14:11:57;;;;;;;11.32;2.45;;;;;;;;;;4960563;28;20031;-81
2021/09/27 14:14:23;;;;;;;7.18;2.38;;;;;;;;;;4955629;28;20141;-81
2021/09/27 14:16:49;;;;;;;8.65;2.20;;;;;;;;;;4964379;28;20033;-81
2021/09/27 14:19:15;;;;;;;7.88;2.50;;;;;;;;;;4959801;28;20109;-81
2021/09/27 14:21:41;;;;;;;8.10;2.35;;;;;;;;;;4962030;28;20026;-78
2021/09/27 14:24:09;;;;;;;8.57;2.45;;;;;;;;;;4958838;28;20058;-82
2021/09/27 14:26:36;;;;;;;8.80;2.33;;;;;;;;;;4973610;28;20691;-81
2021/09/27 14:29:02;;;;;;;7.65;2.33;;;;;;;;;;4962214;28;20058;-81
2021/09/27 14:31:29;;;;;;;8.82;2.50;;;;;;;;;;4961459;28;20531;-81
2021/09/27 14:33:55;;;;;;;8.80;2.80;;;;;;;;;;4963457;28;20802;-80
2021/09/27 14:36:22;;;;;;;8.07;2.38;;;;;;;;;;4958447;28;20101;-81
2021/09/27 14:38:48;;;;;;;9.35;2.60;;;;;;;;;;4963453;28;20030;-81
2021/09/27 14:41:15;;;;;;;8.88;2.30;;;;;;;;;;4975076;28;20051;-80
2021/09/27 14:43:42;;;;;;;8.75;2.55;;;;;;;;;;4966224;28;20038;-80
2021/09/27 14:46:08;;;;;;;8.10;2.22;;;;;;;;;;4975991;28;20531;-80
2021/09/27 14:48:34;;;;;;;11.27;2.35;;;;;;;;;;4962089;28;20038;-80
2021/09/27 14:51:01;;;;;;;8.38;2.35;;;;;;;;;;4963050;28;20069;-81
2021/09/27 14:53:27;;;;;;;12.45;2.53;;;;;;;;;;4977184;28;20042;-80
2021/09/27 14:55:54;;;;;;;8.75;2.60;;;;;;;;;;4968242;28;20100;-81
2021/09/27 14:58:22;;;;;;;6.68;1.90;;;;;;;;;;4990076;28;20040;-81
2021/09/27 15:00:49;;;;;;;8.63;2.20;;;;;;;;;;4986389;28;20026;-81
2021/09/27 15:03:16;;;;;;;11.32;2.20;;;;;;;;;;4964552;28;20042;-82